Terminal Aerodrome Forecast
Issued by NWS

Home | Current Version | Previous Version | Text Only | Print | Product List | Glossary On
Versions: 1 2 3 4 5 6 7 8 9 10 11 12 13 14 15 16 17
000
FTUS46 KSEW 241120
TAFOLM
TAF
KOLM 241120Z 2412/2512 20003KT P6SM SCT030 BKN060
      TEMPO 2412/2416 2SM -SHSN BR BKN010 OVC020
     FM241700 19007KT P6SM VCSH SCT030 BKN070
      TEMPO 2418/2422 4SM -SHRASN BR BKN020
     FM242300 VRB03KT P6SM SCT035 SCT100
     FM250700 VRB03KT 3SM BR SCT020 OVC050=

USA.gov is the U.S. government's official web portal to all federal, state and local government web resources and services.